sensor_id;sensor_type;location;lat;lon;timestamp;P1;durP1;ratioP1;P2;durP2;ratioP2
68757;SDS011;55747;51.998;4.466;2023-03-14T00:01:18;16.80;;;3.05;;
68757;SDS011;55747;51.998;4.466;2023-03-14T00:03:47;10.27;;;2.33;;
68757;SDS011;55747;51.998;4.466;2023-03-14T00:06:13;11.75;;;2.40;;
68757;SDS011;55747;51.998;4.466;2023-03-14T00:08:39;16.95;;;2.05;;
68757;SDS011;55747;51.998;4.466;2023-03-14T00:11:08;13.95;;;2.35;;
68757;SDS011;55747;51.998;4.466;2023-03-14T00:13:38;12.05;;;2.40;;
68757;SDS011;55747;51.998;4.466;2023-03-14T00:16:04;16.42;;;2.63;;
68757;SDS011;55747;51.998;4.466;2023-03-14T00:18:35;11.35;;;2.30;;
68757;SDS011;55747;51.998;4.466;2023-03-14T00:21:01;18.88;;;2.33;;
68757;SDS011;55747;51.998;4.466;2023-03-14T00:23:29;14.40;;;1.92;;
68757;SDS011;55747;51.998;4.466;2023-03-14T00:26:02;15.15;;;2.10;;
68757;SDS011;55747;51.998;4.466;2023-03-14T00:28:29;11.23;;;2.15;;
68757;SDS011;55747;51.998;4.466;2023-03-14T00:30:54;11.75;;;2.45;;
68757;SDS011;55747;51.998;4.466;2023-03-14T00:33:20;15.55;;;2.85;;
68757;SDS011;55747;51.998;4.466;2023-03-14T00:35:58;10.75;;;2.30;;
68757;SDS011;55747;51.998;4.466;2023-03-14T00:38:26;12.38;;;2.90;;
68757;SDS011;55747;51.998;4.466;2023-03-14T00:40:51;18.60;;;2.70;;
68757;SDS011;55747;51.998;4.466;2023-03-14T00:43:18;19.13;;;2.53;;
68757;SDS011;55747;51.998;4.466;2023-03-14T00:45:46;16.38;;;2.47;;
68757;SDS011;55747;51.998;4.466;2023-03-14T00:48:12;20.92;;;3.13;;
68757;SDS011;55747;51.998;4.466;2023-03-14T00:50:38;25.92;;;3.00;;
68757;SDS011;55747;51.998;4.466;2023-03-14T00:53:03;17.33;;;2.33;;
68757;SDS011;55747;51.998;4.466;2023-03-14T00:55:29;21.23;;;2.17;;
68757;SDS011;55747;51.998;4.466;2023-03-14T00:57:54;18.30;;;2.85;;
68757;SDS011;55747;51.998;4.466;2023-03-14T01:00:19;20.50;;;2.90;;
68757;SDS011;55747;51.998;4.466;2023-03-14T01:02:45;14.82;;;2.42;;
68757;SDS011;55747;51.998;4.466;2023-03-14T01:05:10;17.92;;;2.53;;
68757;SDS011;55747;51.998;4.466;2023-03-14T01:07:36;18.23;;;3.05;;
68757;SDS011;55747;51.998;4.466;2023-03-14T01:10:02;15.52;;;2.50;;
68757;SDS011;55747;51.998;4.466;2023-03-14T01:12:29;15.50;;;2.25;;
68757;SDS011;55747;51.998;4.466;2023-03-14T01:14:55;17.85;;;2.60;;
68757;SDS011;55747;51.998;4.466;2023-03-14T01:17:20;12.65;;;2.20;;
68757;SDS011;55747;51.998;4.466;2023-03-14T01:19:46;15.20;;;2.60;;
68757;SDS011;55747;51.998;4.466;2023-03-14T01:22:11;12.73;;;2.42;;
68757;SDS011;55747;51.998;4.466;2023-03-14T01:24:37;13.68;;;2.15;;
68757;SDS011;55747;51.998;4.466;2023-03-14T01:27:03;15.35;;;2.42;;
68757;SDS011;55747;51.998;4.466;2023-03-14T01:29:28;13.07;;;2.53;;
68757;SDS011;55747;51.998;4.466;2023-03-14T01:31:54;12.75;;;2.03;;
68757;SDS011;55747;51.998;4.466;2023-03-14T01:34:20;18.30;;;2.63;;
68757;SDS011;55747;51.998;4.466;2023-03-14T01:36:45;12.90;;;2.50;;
68757;SDS011;55747;51.998;4.466;2023-03-14T01:39:10;10.43;;;1.77;;
68757;SDS011;55747;51.998;4.466;2023-03-14T01:41:36;16.20;;;2.45;;
68757;SDS011;55747;51.998;4.466;2023-03-14T01:44:01;10.25;;;2.10;;
68757;SDS011;55747;51.998;4.466;2023-03-14T01:46:40;16.73;;;2.08;;
68757;SDS011;55747;51.998;4.466;2023-03-14T01:49:15;13.30;;;2.00;;
68757;SDS011;55747;51.998;4.466;2023-03-14T01:51:59;11.07;;;1.92;;
68757;SDS011;55747;51.998;4.466;2023-03-14T01:54:39;12.68;;;2.28;;
68757;SDS011;55747;51.998;4.466;2023-03-14T01:59:49;10.70;;;1.80;;
68757;SDS011;55747;51.998;4.466;2023-03-14T02:02:19;14.35;;;2.10;;
68757;SDS011;55747;51.998;4.466;2023-03-14T02:04:45;10.00;;;1.60;;
68757;SDS011;55747;51.998;4.466;2023-03-14T02:07:22;14.73;;;2.30;;
68757;SDS011;55747;51.998;4.466;2023-03-14T02:09:51;10.48;;;1.90;;
68757;SDS011;55747;51.998;4.466;2023-03-14T02:12:19;10.18;;;2.10;;
68757;SDS011;55747;51.998;4.466;2023-03-14T02:14:46;10.65;;;1.80;;
68757;SDS011;55747;51.998;4.466;2023-03-14T02:17:13;14.20;;;2.17;;
68757;SDS011;55747;51.998;4.466;2023-03-14T02:22:34;12.57;;;2.05;;
68757;SDS011;55747;51.998;4.466;2023-03-14T02:27:50;9.00;;;1.80;;
68757;SDS011;55747;51.998;4.466;2023-03-14T02:30:23;12.25;;;1.92;;
68757;SDS011;55747;51.998;4.466;2023-03-14T02:32:52;8.52;;;1.92;;
68757;SDS011;55747;51.998;4.466;2023-03-14T02:35:22;9.95;;;1.75;;
68757;SDS011;55747;51.998;4.466;2023-03-14T02:37:56;13.93;;;2.13;;
68757;SDS011;55747;51.998;4.466;2023-03-14T02:40:28;11.43;;;2.15;;
68757;SDS011;55747;51.998;4.466;2023-03-14T02:42:53;13.70;;;2.08;;
68757;SDS011;55747;51.998;4.466;2023-03-14T02:47:52;10.18;;;2.13;;
68757;SDS011;55747;51.998;4.466;2023-03-14T02:50:23;13.75;;;2.30;;
68757;SDS011;55747;51.998;4.466;2023-03-14T02:52:51;9.82;;;2.08;;
68757;SDS011;55747;51.998;4.466;2023-03-14T02:55:23;15.02;;;2.67;;
68757;SDS011;55747;51.998;4.466;2023-03-14T02:57:50;14.48;;;2.80;;
68757;SDS011;55747;51.998;4.466;2023-03-14T03:00:16;13.90;;;2.22;;
68757;SDS011;55747;51.998;4.466;2023-03-14T03:02:41;9.73;;;2.35;;
68757;SDS011;55747;51.998;4.466;2023-03-14T03:05:07;14.77;;;2.78;;
68757;SDS011;55747;51.998;4.466;2023-03-14T03:07:33;16.02;;;2.72;;
68757;SDS011;55747;51.998;4.466;2023-03-14T03:09:58;12.88;;;2.58;;
68757;SDS011;55747;51.998;4.466;2023-03-14T03:12:23;10.77;;;2.35;;
68757;SDS011;55747;51.998;4.466;2023-03-14T03:14:49;14.35;;;2.45;;
68757;SDS011;55747;51.998;4.466;2023-03-14T03:17:14;14.32;;;2.80;;
68757;SDS011;55747;51.998;4.466;2023-03-14T03:19:39;9.15;;;3.10;;
68757;SDS011;55747;51.998;4.466;2023-03-14T03:22:05;11.65;;;2.63;;
68757;SDS011;55747;51.998;4.466;2023-03-14T03:24:31;12.00;;;2.20;;
68757;SDS011;55747;51.998;4.466;2023-03-14T03:26:56;10.43;;;2.00;;
68757;SDS011;55747;51.998;4.466;2023-03-14T03:29:21;13.43;;;2.57;;
68757;SDS011;55747;51.998;4.466;2023-03-14T03:31:47;15.13;;;2.63;;
68757;SDS011;55747;51.998;4.466;2023-03-14T03:34:13;14.70;;;2.92;;
68757;SDS011;55747;51.998;4.466;2023-03-14T03:36:39;11.38;;;2.40;;
68757;SDS011;55747;51.998;4.466;2023-03-14T03:39:04;16.23;;;2.72;;
68757;SDS011;55747;51.998;4.466;2023-03-14T03:41:30;16.65;;;2.90;;
68757;SDS011;55747;51.998;4.466;2023-03-14T03:43:55;12.73;;;2.97;;
68757;SDS011;55747;51.998;4.466;2023-03-14T03:46:21;12.77;;;2.78;;
68757;SDS011;55747;51.998;4.466;2023-03-14T03:48:46;11.38;;;2.65;;
68757;SDS011;55747;51.998;4.466;2023-03-14T03:51:13;13.93;;;2.90;;
68757;SDS011;55747;51.998;4.466;2023-03-14T03:53:39;12.43;;;2.35;;
68757;SDS011;55747;51.998;4.466;2023-03-14T03:56:05;10.43;;;2.40;;
68757;SDS011;55747;51.998;4.466;2023-03-14T03:58:30;13.35;;;2.33;;
68757;SDS011;55747;51.998;4.466;2023-03-14T04:00:56;13.18;;;2.40;;
68757;SDS011;55747;51.998;4.466;2023-03-14T04:03:21;11.80;;;2.28;;
68757;SDS011;55747;51.998;4.466;2023-03-14T04:05:46;7.85;;;2.25;;
68757;SDS011;55747;51.998;4.466;2023-03-14T04:08:22;14.45;;;2.25;;
68757;SDS011;55747;51.998;4.466;2023-03-14T04:10:47;7.55;;;1.80;;
68757;SDS011;55747;51.998;4.466;2023-03-14T04:13:12;11.98;;;2.15;;
68757;SDS011;55747;51.998;4.466;2023-03-14T04:15:38;10.67;;;2.53;;
68757;SDS011;55747;51.998;4.466;2023-03-14T04:18:03;9.77;;;2.03;;
68757;SDS011;55747;51.998;4.466;2023-03-14T04:20:28;11.10;;;2.78;;
68757;SDS011;55747;51.998;4.466;2023-03-14T04:22:53;14.03;;;2.70;;
68757;SDS011;55747;51.998;4.466;2023-03-14T04:25:20;16.45;;;3.03;;
68757;SDS011;55747;51.998;4.466;2023-03-14T04:27:46;11.15;;;2.53;;
68757;SDS011;55747;51.998;4.466;2023-03-14T04:30:12;10.25;;;2.67;;
68757;SDS011;55747;51.998;4.466;2023-03-14T04:32:38;13.15;;;2.60;;
68757;SDS011;55747;51.998;4.466;2023-03-14T04:35:04;14.05;;;2.70;;
68757;SDS011;55747;51.998;4.466;2023-03-14T04:37:29;11.13;;;2.67;;
68757;SDS011;55747;51.998;4.466;2023-03-14T04:39:55;13.53;;;2.40;;
68757;SDS011;55747;51.998;4.466;2023-03-14T04:42:21;12.63;;;3.60;;
68757;SDS011;55747;51.998;4.466;2023-03-14T04:44:46;10.52;;;2.70;;
68757;SDS011;55747;51.998;4.466;2023-03-14T04:47:14;12.85;;;3.25;;
68757;SDS011;55747;51.998;4.466;2023-03-14T04:49:39;14.88;;;2.90;;
68757;SDS011;55747;51.998;4.466;2023-03-14T04:52:05;11.25;;;2.95;;
68757;SDS011;55747;51.998;4.466;2023-03-14T04:54:30;8.60;;;2.60;;
68757;SDS011;55747;51.998;4.466;2023-03-14T04:56:55;9.70;;;2.60;;
68757;SDS011;55747;51.998;4.466;2023-03-14T04:59:21;9.73;;;2.90;;
68757;SDS011;55747;51.998;4.466;2023-03-14T05:01:46;11.85;;;3.20;;
68757;SDS011;55747;51.998;4.466;2023-03-14T05:04:13;15.32;;;3.90;;
68757;SDS011;55747;51.998;4.466;2023-03-14T05:06:39;10.98;;;3.17;;
68757;SDS011;55747;51.998;4.466;2023-03-14T05:09:04;8.05;;;3.15;;
68757;SDS011;55747;51.998;4.466;2023-03-14T05:11:30;17.63;;;4.30;;
68757;SDS011;55747;51.998;4.466;2023-03-14T05:13:55;14.32;;;4.68;;
68757;SDS011;55747;51.998;4.466;2023-03-14T05:16:20;13.57;;;5.47;;
68757;SDS011;55747;51.998;4.466;2023-03-14T05:18:46;14.70;;;8.35;;
68757;SDS011;55747;51.998;4.466;2023-03-14T05:21:11;14.73;;;9.10;;
68757;SDS011;55747;51.998;4.466;2023-03-14T05:23:37;13.30;;;9.05;;
68757;SDS011;55747;51.998;4.466;2023-03-14T05:26:02;12.98;;;7.63;;
68757;SDS011;55747;51.998;4.466;2023-03-14T05:28:27;11.35;;;3.33;;
68757;SDS011;55747;51.998;4.466;2023-03-14T05:30:53;14.82;;;2.75;;
68757;SDS011;55747;51.998;4.466;2023-03-14T05:33:18;11.57;;;2.28;;
68757;SDS011;55747;51.998;4.466;2023-03-14T05:35:44;13.40;;;2.55;;
68757;SDS011;55747;51.998;4.466;2023-03-14T05:38:09;19.42;;;2.00;;
68757;SDS011;55747;51.998;4.466;2023-03-14T05:40:34;8.23;;;1.55;;
68757;SDS011;55747;51.998;4.466;2023-03-14T05:43:00;11.38;;;1.52;;
68757;SDS011;55747;51.998;4.466;2023-03-14T05:45:25;11.80;;;1.75;;
68757;SDS011;55747;51.998;4.466;2023-03-14T05:47:50;10.85;;;1.67;;
68757;SDS011;55747;51.998;4.466;2023-03-14T05:50:16;8.38;;;1.90;;
68757;SDS011;55747;51.998;4.466;2023-03-14T05:52:41;10.07;;;1.90;;
68757;SDS011;55747;51.998;4.466;2023-03-14T05:55:06;7.30;;;1.50;;
68757;SDS011;55747;51.998;4.466;2023-03-14T05:57:32;12.90;;;1.95;;
68757;SDS011;55747;51.998;4.466;2023-03-14T05:59:57;10.57;;;2.70;;
68757;SDS011;55747;51.998;4.466;2023-03-14T06:02:23;7.90;;;1.60;;
68757;SDS011;55747;51.998;4.466;2023-03-14T06:04:48;7.50;;;1.67;;
68757;SDS011;55747;51.998;4.466;2023-03-14T06:07:13;9.38;;;1.63;;
68757;SDS011;55747;51.998;4.466;2023-03-14T06:09:39;16.15;;;2.00;;
68757;SDS011;55747;51.998;4.466;2023-03-14T06:12:04;9.00;;;1.83;;
68757;SDS011;55747;51.998;4.466;2023-03-14T06:14:30;8.15;;;1.38;;
68757;SDS011;55747;51.998;4.466;2023-03-14T06:16:56;5.25;;;1.20;;
68757;SDS011;55747;51.998;4.466;2023-03-14T06:19:25;5.45;;;1.20;;
68757;SDS011;55747;51.998;4.466;2023-03-14T06:22:14;8.73;;;1.20;;
68757;SDS011;55747;51.998;4.466;2023-03-14T06:24:51;4.85;;;1.30;;
68757;SDS011;55747;51.998;4.466;2023-03-14T06:27:29;6.60;;;1.17;;
68757;SDS011;55747;51.998;4.466;2023-03-14T06:29:55;5.18;;;1.20;;
68757;SDS011;55747;51.998;4.466;2023-03-14T06:32:20;4.70;;;1.13;;
68757;SDS011;55747;51.998;4.466;2023-03-14T06:34:46;6.78;;;1.40;;
68757;SDS011;55747;51.998;4.466;2023-03-14T06:37:13;5.97;;;1.10;;
68757;SDS011;55747;51.998;4.466;2023-03-14T06:39:39;5.78;;;0.95;;
68757;SDS011;55747;51.998;4.466;2023-03-14T06:42:04;12.55;;;1.40;;
68757;SDS011;55747;51.998;4.466;2023-03-14T06:44:33;7.60;;;1.13;;
68757;SDS011;55747;51.998;4.466;2023-03-14T06:46:59;7.50;;;1.20;;
68757;SDS011;55747;51.998;4.466;2023-03-14T06:49:24;9.38;;;1.40;;
68757;SDS011;55747;51.998;4.466;2023-03-14T06:51:49;11.48;;;1.40;;
68757;SDS011;55747;51.998;4.466;2023-03-14T06:54:15;8.75;;;1.23;;
68757;SDS011;55747;51.998;4.466;2023-03-14T06:56:40;11.70;;;1.38;;
68757;SDS011;55747;51.998;4.466;2023-03-14T06:59:06;10.88;;;1.40;;
68757;SDS011;55747;51.998;4.466;2023-03-14T07:01:31;10.43;;;1.70;;
68757;SDS011;55747;51.998;4.466;2023-03-14T07:04:00;15.48;;;1.90;;
68757;SDS011;55747;51.998;4.466;2023-03-14T07:06:25;12.30;;;1.90;;
68757;SDS011;55747;51.998;4.466;2023-03-14T07:08:54;14.68;;;1.80;;
68757;SDS011;55747;51.998;4.466;2023-03-14T07:11:20;11.48;;;1.83;;
68757;SDS011;55747;51.998;4.466;2023-03-14T07:13:49;12.05;;;1.75;;
68757;SDS011;55747;51.998;4.466;2023-03-14T07:16:16;13.40;;;1.85;;
68757;SDS011;55747;51.998;4.466;2023-03-14T07:18:42;20.02;;;2.33;;
68757;SDS011;55747;51.998;4.466;2023-03-14T07:21:07;16.23;;;1.90;;
68757;SDS011;55747;51.998;4.466;2023-03-14T07:23:37;19.98;;;1.92;;
68757;SDS011;55747;51.998;4.466;2023-03-14T07:26:03;17.05;;;2.20;;
68757;SDS011;55747;51.998;4.466;2023-03-14T07:28:40;15.18;;;2.38;;
68757;SDS011;55747;51.998;4.466;2023-03-14T07:31:07;18.40;;;2.47;;
68757;SDS011;55747;51.998;4.466;2023-03-14T07:33:46;14.93;;;2.63;;
68757;SDS011;55747;51.998;4.466;2023-03-14T07:36:29;10.02;;;1.67;;
68757;SDS011;55747;51.998;4.466;2023-03-14T07:39:04;12.50;;;2.05;;
68757;SDS011;55747;51.998;4.466;2023-03-14T07:41:53;12.18;;;1.45;;
68757;SDS011;55747;51.998;4.466;2023-03-14T07:44:18;6.57;;;1.50;;
68757;SDS011;55747;51.998;4.466;2023-03-14T07:46:46;9.27;;;1.00;;
68757;SDS011;55747;51.998;4.466;2023-03-14T07:49:11;3.28;;;0.68;;
68757;SDS011;55747;51.998;4.466;2023-03-14T07:51:39;11.77;;;1.00;;
68757;SDS011;55747;51.998;4.466;2023-03-14T07:54:11;7.93;;;1.25;;
68757;SDS011;55747;51.998;4.466;2023-03-14T07:56:37;13.02;;;1.30;;
68757;SDS011;55747;51.998;4.466;2023-03-14T07:59:02;8.02;;;1.10;;
68757;SDS011;55747;51.998;4.466;2023-03-14T08:01:28;11.65;;;1.67;;
68757;SDS011;55747;51.998;4.466;2023-03-14T08:03:56;12.55;;;1.10;;
68757;SDS011;55747;51.998;4.466;2023-03-14T08:06:21;13.77;;;1.30;;
68757;SDS011;55747;51.998;4.466;2023-03-14T08:08:46;5.95;;;0.90;;
68757;SDS011;55747;51.998;4.466;2023-03-14T08:11:12;8.70;;;1.42;;
68757;SDS011;55747;51.998;4.466;2023-03-14T08:13:37;11.32;;;1.42;;
68757;SDS011;55747;51.998;4.466;2023-03-14T08:16:03;8.73;;;1.42;;
68757;SDS011;55747;51.998;4.466;2023-03-14T08:18:31;12.90;;;1.30;;
68757;SDS011;55747;51.998;4.466;2023-03-14T08:20:57;8.50;;;1.30;;
68757;SDS011;55747;51.998;4.466;2023-03-14T08:23:22;6.53;;;1.08;;
68757;SDS011;55747;51.998;4.466;2023-03-14T08:25:48;13.30;;;1.50;;
68757;SDS011;55747;51.998;4.466;2023-03-14T08:28:15;9.35;;;1.52;;
68757;SDS011;55747;51.998;4.466;2023-03-14T08:30:40;10.27;;;1.25;;
68757;SDS011;55747;51.998;4.466;2023-03-14T08:33:09;6.60;;;1.42;;
68757;SDS011;55747;51.998;4.466;2023-03-14T08:35:35;8.05;;;1.23;;
68757;SDS011;55747;51.998;4.466;2023-03-14T08:38:02;6.07;;;1.27;;
68757;SDS011;55747;51.998;4.466;2023-03-14T08:40:27;9.52;;;1.25;;
68757;SDS011;55747;51.998;4.466;2023-03-14T08:42:56;7.85;;;1.00;;
68757;SDS011;55747;51.998;4.466;2023-03-14T08:45:21;7.38;;;0.77;;
68757;SDS011;55747;51.998;4.466;2023-03-14T08:47:48;8.18;;;0.85;;
68757;SDS011;55747;51.998;4.466;2023-03-14T08:50:13;6.78;;;1.10;;
68757;SDS011;55747;51.998;4.466;2023-03-14T08:52:39;6.20;;;0.90;;
68757;SDS011;55747;51.998;4.466;2023-03-14T08:55:06;7.22;;;1.30;;
68757;SDS011;55747;51.998;4.466;2023-03-14T08:57:35;10.20;;;1.40;;
68757;SDS011;55747;51.998;4.466;2023-03-14T09:00:02;3.63;;;0.90;;
68757;SDS011;55747;51.998;4.466;2023-03-14T09:02:30;11.50;;;1.42;;
68757;SDS011;55747;51.998;4.466;2023-03-14T09:04:56;11.27;;;1.52;;
68757;SDS011;55747;51.998;4.466;2023-03-14T09:07:21;7.50;;;1.25;;
68757;SDS011;55747;51.998;4.466;2023-03-14T09:09:46;13.25;;;1.65;;
68757;SDS011;55747;51.998;4.466;2023-03-14T09:12:12;12.73;;;1.45;;
68757;SDS011;55747;51.998;4.466;2023-03-14T09:14:37;12.10;;;2.00;;
68757;SDS011;55747;51.998;4.466;2023-03-14T09:17:03;13.73;;;1.60;;
68757;SDS011;55747;51.998;4.466;2023-03-14T09:19:29;15.13;;;1.73;;
68757;SDS011;55747;51.998;4.466;2023-03-14T09:21:55;16.60;;;2.35;;
68757;SDS011;55747;51.998;4.466;2023-03-14T09:24:20;14.55;;;2.00;;
68757;SDS011;55747;51.998;4.466;2023-03-14T09:26:46;17.77;;;2.95;;
68757;SDS011;55747;51.998;4.466;2023-03-14T09:29:11;19.42;;;2.45;;
68757;SDS011;55747;51.998;4.466;2023-03-14T09:31:37;23.05;;;2.80;;
68757;SDS011;55747;51.998;4.466;2023-03-14T09:34:03;19.40;;;2.47;;
68757;SDS011;55747;51.998;4.466;2023-03-14T09:36:29;13.63;;;2.05;;
68757;SDS011;55747;51.998;4.466;2023-03-14T09:38:55;12.38;;;2.00;;
68757;SDS011;55747;51.998;4.466;2023-03-14T09:41:42;14.18;;;1.90;;
68757;SDS011;55747;51.998;4.466;2023-03-14T09:44:15;14.23;;;2.00;;
68757;SDS011;55747;51.998;4.466;2023-03-14T09:46:46;13.90;;;1.85;;
68757;SDS011;55747;51.998;4.466;2023-03-14T09:49:23;8.80;;;1.65;;
68757;SDS011;55747;51.998;4.466;2023-03-14T09:51:53;16.17;;;2.10;;
68757;SDS011;55747;51.998;4.466;2023-03-14T09:55:03;12.85;;;1.92;;
68757;SDS011;55747;51.998;4.466;2023-03-14T09:57:15;22.10;;;2.65;;
68757;SDS011;55747;51.998;4.466;2023-03-14T09:59:44;20.38;;;2.50;;
68757;SDS011;55747;51.998;4.466;2023-03-14T10:02:21;15.77;;;2.25;;
68757;SDS011;55747;51.998;4.466;2023-03-14T10:04:49;15.05;;;1.83;;
68757;SDS011;55747;51.998;4.466;2023-03-14T10:07:17;18.58;;;2.50;;
68757;SDS011;55747;51.998;4.466;2023-03-14T10:09:48;31.15;;;3.45;;
68757;SDS011;55747;51.998;4.466;2023-03-14T10:12:15;23.45;;;2.75;;
68757;SDS011;55747;51.998;4.466;2023-03-14T10:14:49;17.83;;;2.50;;
68757;SDS011;55747;51.998;4.466;2023-03-14T10:17:17;14.73;;;2.33;;
68757;SDS011;55747;51.998;4.466;2023-03-14T10:19:51;25.10;;;2.92;;
68757;SDS011;55747;51.998;4.466;2023-03-14T10:22:19;20.88;;;2.50;;
68757;SDS011;55747;51.998;4.466;2023-03-14T10:24:55;22.38;;;2.75;;
68757;SDS011;55747;51.998;4.466;2023-03-14T10:27:29;19.75;;;2.58;;
68757;SDS011;55747;51.998;4.466;2023-03-14T10:30:01;18.13;;;2.72;;
68757;SDS011;55747;51.998;4.466;2023-03-14T10:32:35;23.33;;;2.90;;
68757;SDS011;55747;51.998;4.466;2023-03-14T10:37:35;17.73;;;2.78;;
68757;SDS011;55747;51.998;4.466;2023-03-14T10:40:12;20.50;;;2.83;;
68757;SDS011;55747;51.998;4.466;2023-03-14T10:42:39;19.25;;;2.15;;
68757;SDS011;55747;51.998;4.466;2023-03-14T10:45:22;16.98;;;2.58;;
68757;SDS011;55747;51.998;4.466;2023-03-14T10:47:57;23.00;;;2.65;;
68757;SDS011;55747;51.998;4.466;2023-03-14T10:50:26;16.08;;;2.35;;
68757;SDS011;55747;51.998;4.466;2023-03-14T10:52:53;17.77;;;2.80;;
68757;SDS011;55747;51.998;4.466;2023-03-14T10:55:20;21.80;;;2.50;;
68757;SDS011;55747;51.998;4.466;2023-03-14T10:57:45;18.50;;;2.90;;
68757;SDS011;55747;51.998;4.466;2023-03-14T11:00:14;14.30;;;2.13;;
68757;SDS011;55747;51.998;4.466;2023-03-14T11:02:47;20.08;;;3.20;;
68757;SDS011;55747;51.998;4.466;2023-03-14T11:05:28;21.55;;;2.80;;
68757;SDS011;55747;51.998;4.466;2023-03-14T11:08:01;23.13;;;3.20;;
68757;SDS011;55747;51.998;4.466;2023-03-14T11:10:35;12.90;;;1.65;;
68757;SDS011;55747;51.998;4.466;2023-03-14T11:23:42;12.18;;;1.77;;
68757;SDS011;55747;51.998;4.466;2023-03-14T11:31:45;14.63;;;2.22;;
68757;SDS011;55747;51.998;4.466;2023-03-14T11:39:37;8.95;;;1.50;;
68757;SDS011;55747;51.998;4.466;2023-03-14T11:42:05;13.05;;;2.35;;
68757;SDS011;55747;51.998;4.466;2023-03-14T11:44:38;13.48;;;2.30;;
68757;SDS011;55747;51.998;4.466;2023-03-14T11:47:19;9.85;;;2.05;;
68757;SDS011;55747;51.998;4.466;2023-03-14T11:52:17;15.67;;;2.37;;
68757;SDS011;55747;51.998;4.466;2023-03-14T11:54:50;9.90;;;2.10;;
68757;SDS011;55747;51.998;4.466;2023-03-14T11:57:20;11.02;;;1.90;;
68757;SDS011;55747;51.998;4.466;2023-03-14T11:59:49;10.38;;;1.80;;
68757;SDS011;55747;51.998;4.466;2023-03-14T12:13:19;8.85;;;1.77;;
68757;SDS011;55747;51.998;4.466;2023-03-14T12:15:54;10.13;;;1.80;;
68757;SDS011;55747;51.998;4.466;2023-03-14T12:18:30;7.35;;;1.40;;
68757;SDS011;55747;51.998;4.466;2023-03-14T12:20:58;6.35;;;1.42;;
68757;SDS011;55747;51.998;4.466;2023-03-14T12:23:26;6.95;;;1.52;;
68757;SDS011;55747;51.998;4.466;2023-03-14T12:28:36;7.68;;;1.67;;
68757;SDS011;55747;51.998;4.466;2023-03-14T12:44:54;9.07;;;1.77;;
68757;SDS011;55747;51.998;4.466;2023-03-14T12:47:53;10.77;;;1.80;;
68757;SDS011;55747;51.998;4.466;2023-03-14T12:50:21;10.52;;;1.90;;
68757;SDS011;55747;51.998;4.466;2023-03-14T12:55:24;8.68;;;1.70;;
68757;SDS011;55747;51.998;4.466;2023-03-14T13:00:31;7.03;;;1.25;;
68757;SDS011;55747;51.998;4.466;2023-03-14T13:03:02;9.02;;;1.23;;
68757;SDS011;55747;51.998;4.466;2023-03-14T13:05:52;8.40;;;1.40;;
68757;SDS011;55747;51.998;4.466;2023-03-14T13:08:39;9.57;;;1.80;;
68757;SDS011;55747;51.998;4.466;2023-03-14T13:11:14;6.90;;;1.27;;
68757;SDS011;55747;51.998;4.466;2023-03-14T13:13:44;9.63;;;1.40;;
68757;SDS011;55747;51.998;4.466;2023-03-14T13:16:19;11.68;;;1.52;;
68757;SDS011;55747;51.998;4.466;2023-03-14T13:18:46;8.00;;;1.60;;
68757;SDS011;55747;51.998;4.466;2023-03-14T13:21:34;10.60;;;1.40;;
68757;SDS011;55747;51.998;4.466;2023-03-14T13:24:03;7.97;;;1.30;;
68757;SDS011;55747;51.998;4.466;2023-03-14T13:26:35;8.43;;;1.50;;
68757;SDS011;55747;51.998;4.466;2023-03-14T13:29:17;11.43;;;1.40;;
68757;SDS011;55747;51.998;4.466;2023-03-14T13:31:49;10.52;;;1.50;;
68757;SDS011;55747;51.998;4.466;2023-03-14T13:34:17;7.95;;;1.55;;
68757;SDS011;55747;51.998;4.466;2023-03-14T13:36:42;6.90;;;1.65;;
68757;SDS011;55747;51.998;4.466;2023-03-14T13:39:13;8.00;;;1.35;;
68757;SDS011;55747;51.998;4.466;2023-03-14T13:41:41;8.38;;;1.13;;
68757;SDS011;55747;51.998;4.466;2023-03-14T13:44:07;8.23;;;1.25;;
68757;SDS011;55747;51.998;4.466;2023-03-14T13:46:37;11.30;;;2.17;;
68757;SDS011;55747;51.998;4.466;2023-03-14T13:49:04;7.47;;;1.17;;
68757;SDS011;55747;51.998;4.466;2023-03-14T13:51:34;9.35;;;1.45;;
68757;SDS011;55747;51.998;4.466;2023-03-14T13:53:59;9.95;;;1.70;;
68757;SDS011;55747;51.998;4.466;2023-03-14T13:56:28;6.55;;;1.30;;
68757;SDS011;55747;51.998;4.466;2023-03-14T13:58:55;7.57;;;1.50;;
68757;SDS011;55747;51.998;4.466;2023-03-14T14:03:56;3.88;;;1.10;;
68757;SDS011;55747;51.998;4.466;2023-03-14T14:08:53;8.38;;;1.20;;
68757;SDS011;55747;51.998;4.466;2023-03-14T14:14:04;6.85;;;1.10;;
68757;SDS011;55747;51.998;4.466;2023-03-14T14:16:35;6.70;;;1.13;;
68757;SDS011;55747;51.998;4.466;2023-03-14T14:19:00;7.28;;;1.35;;
68757;SDS011;55747;51.998;4.466;2023-03-14T14:21:27;7.80;;;1.30;;
68757;SDS011;55747;51.998;4.466;2023-03-14T14:23:52;6.78;;;1.20;;
68757;SDS011;55747;51.998;4.466;2023-03-14T14:26:19;8.63;;;1.23;;
68757;SDS011;55747;51.998;4.466;2023-03-14T14:28:45;17.45;;;1.60;;
68757;SDS011;55747;51.998;4.466;2023-03-14T14:36:43;10.90;;;1.63;;
68757;SDS011;55747;51.998;4.466;2023-03-14T14:39:19;11.65;;;1.30;;
68757;SDS011;55747;51.998;4.466;2023-03-14T14:41:57;7.97;;;1.15;;
68757;SDS011;55747;51.998;4.466;2023-03-14T14:44:40;13.38;;;1.63;;
68757;SDS011;55747;51.998;4.466;2023-03-14T14:47:11;7.45;;;1.13;;
68757;SDS011;55747;51.998;4.466;2023-03-14T14:49:49;7.35;;;1.40;;
68757;SDS011;55747;51.998;4.466;2023-03-14T14:57:22;5.90;;;1.52;;
68757;SDS011;55747;51.998;4.466;2023-03-14T14:59:49;6.40;;;1.05;;
68757;SDS011;55747;51.998;4.466;2023-03-14T15:05:12;7.22;;;1.08;;
68757;SDS011;55747;51.998;4.466;2023-03-14T15:07:39;3.95;;;1.08;;
68757;SDS011;55747;51.998;4.466;2023-03-14T15:10:05;7.65;;;1.30;;
68757;SDS011;55747;51.998;4.466;2023-03-14T15:12:35;11.20;;;1.25;;
68757;SDS011;55747;51.998;4.466;2023-03-14T15:15:00;6.05;;;1.30;;
68757;SDS011;55747;51.998;4.466;2023-03-14T15:17:26;8.30;;;1.10;;
68757;SDS011;55747;51.998;4.466;2023-03-14T15:19:51;5.53;;;0.90;;
68757;SDS011;55747;51.998;4.466;2023-03-14T15:22:16;9.52;;;1.52;;
68757;SDS011;55747;51.998;4.466;2023-03-14T15:24:45;7.53;;;1.17;;
68757;SDS011;55747;51.998;4.466;2023-03-14T15:27:12;4.95;;;0.95;;
68757;SDS011;55747;51.998;4.466;2023-03-14T15:29:40;5.25;;;1.45;;
68757;SDS011;55747;51.998;4.466;2023-03-14T15:32:05;4.45;;;1.02;;
68757;SDS011;55747;51.998;4.466;2023-03-14T15:34:31;6.90;;;1.08;;
68757;SDS011;55747;51.998;4.466;2023-03-14T15:36:57;7.90;;;1.67;;
68757;SDS011;55747;51.998;4.466;2023-03-14T15:39:22;7.47;;;1.30;;
68757;SDS011;55747;51.998;4.466;2023-03-14T15:41:47;3.70;;;0.90;;
68757;SDS011;55747;51.998;4.466;2023-03-14T15:44:13;6.35;;;0.90;;
68757;SDS011;55747;51.998;4.466;2023-03-14T15:46:41;8.00;;;1.45;;
68757;SDS011;55747;51.998;4.466;2023-03-14T15:49:07;4.22;;;0.93;;
68757;SDS011;55747;51.998;4.466;2023-03-14T15:51:33;11.02;;;1.58;;
68757;SDS011;55747;51.998;4.466;2023-03-14T15:53:58;15.60;;;1.52;;
68757;SDS011;55747;51.998;4.466;2023-03-14T15:56:24;11.60;;;1.25;;
68757;SDS011;55747;51.998;4.466;2023-03-14T15:58:58;10.20;;;1.27;;
68757;SDS011;55747;51.998;4.466;2023-03-14T16:01:23;9.82;;;1.20;;
68757;SDS011;55747;51.998;4.466;2023-03-14T16:03:59;14.13;;;1.48;;
68757;SDS011;55747;51.998;4.466;2023-03-14T16:06:24;7.95;;;1.25;;
68757;SDS011;55747;51.998;4.466;2023-03-14T16:08:50;11.32;;;1.70;;
68757;SDS011;55747;51.998;4.466;2023-03-14T16:11:15;6.80;;;1.40;;
68757;SDS011;55747;51.998;4.466;2023-03-14T16:13:42;7.97;;;1.58;;
68757;SDS011;55747;51.998;4.466;2023-03-14T16:16:10;7.28;;;1.23;;